Time;durP1;ratioP1;P1;durP2;ratioP2;P2;SDS_P1;SDS_P2;PMS_P1;PMS_P2;Temp;Humidity;BMP_temperature;BMP_pressure;BME280_temperature;BME280_humidity;BME280_pressure;Samples;Min_cycle;Max_cycle;Signal;HPM_P1;HPM_P2
2021/10/11 00:00:27;;;;;;;28.08;14.05;;;;;;;4.14;61.98;100395.41;5072561;28;20046;-63
2021/10/11 00:02:53;;;;;;;22.58;12.65;;;;;;;4.10;62.54;100400.19;5072626;28;20041;-62
2021/10/11 00:05:19;;;;;;;28.05;13.93;;;;;;;4.09;61.83;100395.94;5072365;28;20040;-64
2021/10/11 00:07:45;;;;;;;21.02;11.55;;;;;;;4.07;62.17;100395.28;5072247;28;20087;-63
2021/10/11 00:10:19;;;;;;;21.52;10.93;;;;;;;4.08;62.11;100396.91;5072031;28;20048;-63
2021/10/11 00:12:49;;;;;;;19.60;12.13;;;;;;;4.08;62.46;100396.91;5055490;28;20062;-62
2021/10/11 00:15:16;;;;;;;18.80;10.63;;;;;;;4.06;61.70;100378.72;5071039;28;20072;-62
2021/10/11 00:17:43;;;;;;;17.17;11.07;;;;;;;4.12;61.59;100390.34;5070764;28;20045;-62
2021/10/11 00:20:10;;;;;;;19.10;11.13;;;;;;;4.14;61.64;100392.78;5072100;28;20479;-63
2021/10/11 00:22:36;;;;;;;17.25;10.82;;;;;;;4.14;62.11;100390.16;5071981;28;20047;-63
2021/10/11 00:25:04;;;;;;;21.83;11.05;;;;;;;4.14;62.04;100390.97;5070813;28;20048;-61
2021/10/11 00:27:31;;;;;;;19.77;11.65;;;;;;;4.08;62.23;100384.59;5070708;28;20124;-63
2021/10/11 00:29:57;;;;;;;23.35;11.70;;;;;;;4.10;61.71;100392.31;5070812;28;20056;-62
2021/10/11 00:32:23;;;;;;;19.15;10.23;;;;;;;4.08;61.52;100389.84;5070628;28;20138;-63
2021/10/11 00:34:49;;;;;;;22.23;11.13;;;;;;;4.08;62.00;100386.41;5072229;28;20159;-63
2021/10/11 00:37:15;;;;;;;21.48;12.18;;;;;;;4.06;62.74;100377.91;5071707;28;20064;-63
2021/10/11 00:39:40;;;;;;;29.45;12.43;;;;;;;3.99;62.56;100374.31;5072186;28;20454;-62
2021/10/11 00:42:06;;;;;;;23.85;12.13;;;;;;;3.96;62.20;100388.59;5053909;28;20068;-64
2021/10/11 00:44:32;;;;;;;24.80;12.20;;;;;;;3.94;62.25;100385.34;5071958;28;20087;-62
2021/10/11 00:46:58;;;;;;;24.48;12.18;;;;;;;3.91;62.91;100385.66;5071863;28;20563;-62
2021/10/11 00:49:24;;;;;;;20.85;11.23;;;;;;;3.90;62.88;100383.22;5070431;28;20048;-63
2021/10/11 00:51:49;;;;;;;22.20;11.52;;;;;;;3.88;62.49;100375.50;5070358;28;20609;-64
2021/10/11 00:54:16;;;;;;;24.48;11.35;;;;;;;3.89;62.47;100379.78;5071871;28;20139;-62
2021/10/11 00:56:42;;;;;;;25.55;11.55;;;;;;;3.91;62.34;100377.78;5071516;28;20494;-64
2021/10/11 00:59:07;;;;;;;23.17;11.50;;;;;;;3.87;63.10;100376.50;5070371;28;20067;-62
2021/10/11 01:01:33;;;;;;;28.45;12.65;;;;;;;3.82;63.41;100379.63;5071555;28;20075;-64
2021/10/11 01:04:04;;;;;;;23.67;11.80;;;;;;;3.77;63.20;100373.25;5071581;28;20099;-61
2021/10/11 01:06:31;;;;;;;20.60;11.48;;;;;;;3.75;63.01;100372.59;5053486;28;20040;-62
2021/10/11 01:08:58;;;;;;;22.88;10.05;;;;;;;3.76;62.31;100367.16;5069652;28;20051;-62
2021/10/11 01:11:23;;;;;;;19.80;11.02;;;;;;;3.76;62.90;100363.75;5069970;28;20063;-62
2021/10/11 01:13:49;;;;;;;22.20;10.60;;;;;;;3.78;62.22;100365.22;5070210;28;20135;-63
2021/10/11 01:16:15;;;;;;;24.42;12.57;;;;;;;3.73;63.36;100367.50;5071313;28;20040;-64
2021/10/11 01:18:41;;;;;;;22.33;11.55;;;;;;;3.66;63.01;100361.31;5069977;28;20041;-61
2021/10/11 01:21:07;;;;;;;19.38;11.15;;;;;;;3.64;63.07;100361.47;5071774;28;20043;-63
2021/10/11 01:23:32;;;;;;;20.00;11.70;;;;;;;3.60;63.64;100365.44;5071174;28;20474;-62
2021/10/11 01:25:58;;;;;;;21.70;11.60;;;;;;;3.58;63.71;100362.16;5071437;28;20051;-64
2021/10/11 01:28:24;;;;;;;21.30;12.68;;;;;;;3.54;63.49;100366.09;5053104;28;20037;-63
2021/10/11 01:30:50;;;;;;;21.77;11.98;;;;;;;3.52;63.77;100364.63;5071173;28;20071;-63
2021/10/11 01:33:16;;;;;;;21.35;11.88;;;;;;;3.46;63.83;100360.06;5071122;28;20398;-61
2021/10/11 01:35:42;;;;;;;26.27;11.98;;;;;;;3.43;63.79;100358.59;5070191;28;20127;-61
2021/10/11 01:38:10;;;;;;;22.25;10.98;;;;;;;3.42;63.78;100363.00;5053106;28;20502;-62
2021/10/11 01:40:36;;;;;;;23.70;11.77;;;;;;;3.44;63.60;100365.44;5071165;28;20043;-63
2021/10/11 01:43:02;;;;;;;22.08;11.18;;;;;;;3.46;63.77;100357.44;5071326;28;20707;-62
2021/10/11 01:45:28;;;;;;;22.15;12.23;;;;;;;3.46;63.39;100352.19;5069856;28;20045;-62
2021/10/11 01:47:54;;;;;;;24.15;11.70;;;;;;;3.44;63.38;100351.53;5070872;28;20044;-62
2021/10/11 01:50:20;;;;;;;22.35;10.90;;;;;;;3.41;63.36;100344.81;5069604;28;20041;-64
2021/10/11 01:52:45;;;;;;;27.63;11.50;;;;;;;3.38;63.48;100343.38;5052737;28;20071;-62
2021/10/11 01:55:11;;;;;;;22.10;10.73;;;;;;;3.40;63.45;100343.19;5052917;28;20538;-62
2021/10/11 01:57:37;;;;;;;23.50;11.85;;;;;;;3.42;63.20;100344.66;5069651;28;20135;-64
2021/10/11 02:00:06;;;;;;;18.05;10.45;;;;;;;3.36;63.16;100327.00;5070885;28;20041;-62
2021/10/11 02:02:32;;;;;;;22.92;11.57;;;;;;;3.41;63.75;100337.78;5069617;28;20051;-62
2021/10/11 02:04:58;;;;;;;17.10;10.35;;;;;;;3.38;63.19;100335.50;5053167;28;20045;-62
2021/10/11 02:07:24;;;;;;;19.30;10.50;;;;;;;3.39;63.27;100334.50;5037120;28;20055;-63
2021/10/11 02:09:49;;;;;;;22.35;10.52;;;;;;;3.40;63.28;100328.28;5053941;28;20048;-62
2021/10/11 02:12:15;;;;;;;22.20;12.00;;;;;;;3.37;63.48;100328.63;5069770;28;20093;-62
2021/10/11 02:14:41;;;;;;;22.45;12.50;;;;;;;3.30;63.89;100329.47;5070014;28;20051;-62
2021/10/11 02:17:07;;;;;;;24.70;12.30;;;;;;;3.26;64.30;100328.97;5070738;28;20045;-63
2021/10/11 02:19:33;;;;;;;19.75;10.60;;;;;;;3.23;64.51;100325.88;5070610;28;20044;-63
2021/10/11 02:21:59;;;;;;;21.40;11.07;;;;;;;3.19;64.18;100331.44;5072665;28;20051;-62
2021/10/11 02:24:26;;;;;;;24.42;12.57;;;;;;;3.16;64.26;100321.28;5056747;28;20056;-62
2021/10/11 02:26:52;;;;;;;21.42;12.13;;;;;;;3.18;64.15;100329.00;5074278;28;20422;-64
2021/10/11 02:29:18;;;;;;;21.40;12.65;;;;;;;3.15;64.57;100327.53;5074588;28;20175;-62
2021/10/11 02:31:44;;;;;;;20.00;11.80;;;;;;;3.15;64.57;100324.09;5074169;28;20490;-64
2021/10/11 02:34:10;;;;;;;19.85;11.00;;;;;;;3.13;64.19;100318.19;5056004;28;20044;-63
2021/10/11 02:36:36;;;;;;;19.88;11.73;;;;;;;3.14;64.52;100319.81;5072930;28;20043;-63
2021/10/11 02:39:03;;;;;;;22.02;12.05;;;;;;;3.14;64.35;100317.19;5074332;28;20044;-61
2021/10/11 02:41:28;;;;;;;25.45;12.13;;;;;;;3.12;64.46;100314.75;5072809;28;20037;-65
2021/10/11 02:43:54;;;;;;;24.35;12.88;;;;;;;3.11;64.96;100320.16;5072731;28;20075;-62
2021/10/11 02:46:20;;;;;;;24.75;12.23;;;;;;;3.09;64.86;100316.88;5074001;28;20047;-63
2021/10/11 02:48:46;;;;;;;25.55;13.10;;;;;;;3.03;65.23;100315.75;5072432;28;20135;-62
2021/10/11 02:51:12;;;;;;;24.60;12.43;;;;;;;3.00;65.06;100308.22;5074114;28;20418;-62
2021/10/11 02:53:38;;;;;;;24.00;12.55;;;;;;;2.95;65.28;100308.72;5072492;28;20045;-62
2021/10/11 02:56:04;;;;;;;25.02;12.65;;;;;;;2.92;65.56;100301.19;5072667;28;20452;-64
2021/10/11 02:58:30;;;;;;;20.85;12.07;;;;;;;2.88;65.46;100310.38;5073766;28;20435;-62
2021/10/11 03:00:55;;;;;;;29.25;13.48;;;;;;;2.82;65.62;100295.28;5072490;28;20040;-64
2021/10/11 03:03:21;;;;;;;23.67;11.48;;;;;;;2.80;65.74;100306.94;5055537;28;20074;-63
2021/10/11 03:05:47;;;;;;;21.85;11.43;;;;;;;2.78;65.55;100301.84;5072359;28;20040;-64
2021/10/11 03:08:12;;;;;;;26.08;12.48;;;;;;;2.76;65.94;100297.75;5038835;28;20092;-62
2021/10/11 03:10:38;;;;;;;28.88;14.00;;;;;;;2.73;66.14;100306.75;5073536;28;20068;-62
2021/10/11 03:13:04;;;;;;;27.67;13.93;;;;;;;2.66;66.43;100303.97;5071894;28;20044;-63
2021/10/11 03:15:30;;;;;;;24.50;13.02;;;;;;;2.66;66.58;100298.72;5072277;28;20565;-63
2021/10/11 03:17:55;;;;;;;32.05;14.10;;;;;;;2.59;66.58;100292.53;5072124;28;20048;-63
2021/10/11 03:20:21;;;;;;;28.17;13.32;;;;;;;2.55;66.66;100290.38;5073654;28;20032;-63
2021/10/11 03:22:47;;;;;;;25.23;12.90;;;;;;;2.55;66.46;100293.00;5073306;28;20043;-63
2021/10/11 03:25:13;;;;;;;22.50;12.05;;;;;;;2.50;66.48;100290.88;5073422;28;20036;-64
2021/10/11 03:27:39;;;;;;;27.55;12.88;;;;;;;2.49;66.62;100287.44;5073512;28;20052;-61
2021/10/11 03:30:05;;;;;;;30.65;14.07;;;;;;;2.50;66.77;100293.50;5071730;28;20417;-62
2021/10/11 03:32:31;;;;;;;37.15;13.63;;;;;;;2.48;66.82;100287.59;5071354;28;20040;-62
2021/10/11 03:34:57;;;;;;;30.65;14.00;;;;;;;2.46;66.77;100282.53;5071600;28;20086;-62
2021/10/11 03:37:23;;;;;;;25.60;13.57;;;;;;;2.41;67.04;100276.97;5072878;28;20564;-63
2021/10/11 03:39:48;;;;;;;31.80;14.52;;;;;;;2.39;67.35;100288.59;5073377;28;20545;-62
2021/10/11 03:42:14;;;;;;;39.05;14.73;;;;;;;2.33;67.59;100286.63;5071919;28;20045;-64
2021/10/11 03:44:40;;;;;;;33.60;14.63;;;;;;;2.31;67.49;100276.31;5073175;28;20106;-62
2021/10/11 03:47:06;;;;;;;27.73;13.98;;;;;;;2.28;68.43;100279.25;5073068;28;20105;-63
2021/10/11 03:49:31;;;;;;;43.72;15.77;;;;;;;2.30;67.99;100286.94;5021891;28;20101;-63
2021/10/11 03:51:57;;;;;;;35.67;15.25;;;;;;;2.30;67.93;100285.16;5071468;28;20066;-64
2021/10/11 03:54:23;;;;;;;39.53;16.27;;;;;;;2.28;68.23;100277.44;5072831;28;20048;-62
2021/10/11 03:56:49;;;;;;;34.25;15.07;;;;;;;2.29;68.20;100288.72;5071304;28;20040;-62
2021/10/11 03:59:14;;;;;;;33.92;13.68;;;;;;;2.27;68.11;100280.22;5072584;28;20132;-63
2021/10/11 04:01:40;;;;;;;27.33;12.65;;;;;;;2.33;67.83;100282.19;5071302;28;20628;-63
2021/10/11 04:04:07;;;;;;;30.35;13.95;;;;;;;2.33;67.65;100276.97;5072422;28;20048;-62
2021/10/11 04:06:33;;;;;;;25.98;13.50;;;;;;;2.35;67.75;100285.44;5072252;28;20040;-63
2021/10/11 04:09:00;;;;;;;33.38;14.43;;;;;;;2.38;67.69;100276.47;5071001;28;20094;-63
2021/10/11 04:11:26;;;;;;;29.77;13.30;;;;;;;2.37;67.52;100283.50;5072153;28;20062;-63
2021/10/11 04:13:53;;;;;;;31.65;14.25;;;;;;;2.36;68.45;100283.69;5072368;28;20467;-62
2021/10/11 04:16:18;;;;;;;33.35;14.52;;;;;;;2.34;68.06;100275.16;5072079;28;20041;-64
2021/10/11 04:18:44;;;;;;;40.40;16.60;;;;;;;2.37;67.56;100278.28;5072238;28;20040;-64
2021/10/11 04:21:10;;;;;;;27.70;14.98;;;;;;;2.39;67.63;100283.34;5070696;28;20082;-63
2021/10/11 04:23:39;;;;;;;31.27;15.40;;;;;;;2.36;67.52;100278.44;5054130;28;20037;-64
2021/10/11 04:26:04;;;;;;;30.85;14.80;;;;;;;2.37;68.11;100280.06;5070769;28;20490;-62
2021/10/11 04:28:30;;;;;;;30.65;14.40;;;;;;;2.40;67.62;100279.75;5070808;28;20130;-64
2021/10/11 04:30:56;;;;;;;32.38;18.00;;;;;;;2.48;67.52;100277.94;5071814;28;20514;-63
2021/10/11 04:33:23;;;;;;;33.70;13.77;;;;;;;2.54;67.57;100276.50;5071772;28;20410;-61
2021/10/11 04:35:49;;;;;;;30.42;14.55;;;;;;;2.62;66.92;100275.69;5071820;28;20055;-63
2021/10/11 04:38:15;;;;;;;38.40;14.95;;;;;;;2.67;66.72;100284.66;5070630;28;20037;-62
2021/10/11 04:40:41;;;;;;;28.83;14.30;;;;;;;2.67;66.60;100278.59;5071741;28;20036;-63
2021/10/11 04:43:07;;;;;;;37.25;14.45;;;;;;;2.78;66.59;100280.91;5069888;28;20494;-62
2021/10/11 04:45:33;;;;;;;36.40;15.18;;;;;;;2.82;66.51;100281.38;5069869;28;20587;-64
2021/10/11 04:48:05;;;;;;;37.78;14.90;;;;;;;2.86;66.45;100274.84;5053683;28;20051;-63
2021/10/11 04:50:33;;;;;;;31.65;15.10;;;;;;;2.92;66.37;100275.00;5070489;28;20230;-63
2021/10/11 04:53:00;;;;;;;24.23;12.70;;;;;;;2.99;65.47;100282.19;5071327;28;20052;-63
2021/10/11 04:55:26;;;;;;;33.50;14.05;;;;;;;3.01;65.31;100267.94;5053407;28;20246;-64
2021/10/11 04:57:52;;;;;;;38.60;13.40;;;;;;;3.07;65.28;100275.13;5069896;28;20422;-63
2021/10/11 05:00:19;;;;;;;30.23;14.40;;;;;;;3.13;65.04;100277.09;5053204;28;20044;-64
2021/10/11 05:02:46;;;;;;;30.67;13.73;;;;;;;3.22;64.98;100277.06;5071211;28;20403;-63
2021/10/11 05:05:12;;;;;;;30.25;12.88;;;;;;;3.28;64.46;100277.22;5071143;28;20040;-64
2021/10/11 05:07:37;;;;;;;30.90;14.15;;;;;;;3.34;64.26;100276.53;5071306;28;20036;-64
2021/10/11 05:10:04;;;;;;;29.42;14.23;;;;;;;3.38;63.90;100270.00;5071014;28;20087;-64
2021/10/11 05:12:30;;;;;;;33.83;13.73;;;;;;;3.47;63.48;100276.03;5071197;28;20051;-63
2021/10/11 05:14:55;;;;;;;29.98;12.88;;;;;;;3.52;63.47;100278.13;5071590;28;20429;-64
2021/10/11 05:17:22;;;;;;;38.53;15.07;;;;;;;3.61;64.44;100282.34;5070925;28;20066;-64
2021/10/11 05:19:48;;;;;;;31.48;12.65;;;;;;;3.68;63.25;100274.59;5069979;28;20037;-63
2021/10/11 05:22:13;;;;;;;25.35;13.25;;;;;;;3.75;62.65;100273.75;5053187;28;20052;-65
2021/10/11 05:24:41;;;;;;;31.08;13.30;;;;;;;3.82;62.98;100279.97;5070706;28;20552;-63
2021/10/11 05:27:07;;;;;;;34.85;13.32;;;;;;;3.89;63.17;100271.41;5052905;28;20070;-63
2021/10/11 05:29:33;;;;;;;32.85;13.13;;;;;;;3.95;62.98;100273.34;5071036;28;20052;-64
2021/10/11 05:31:58;;;;;;;28.52;12.23;;;;;;;4.00;62.80;100276.25;5070832;28;20089;-63
2021/10/11 05:34:25;;;;;;;30.45;13.15;;;;;;;4.09;63.53;100275.25;5070846;28;20583;-63
2021/10/11 05:36:51;;;;;;;25.05;12.32;;;;;;;4.15;62.46;100271.06;5071204;28;20414;-65
2021/10/11 05:39:18;;;;;;;27.25;14.05;;;;;;;4.20;62.81;100274.81;5069628;28;20040;-63
2021/10/11 05:41:45;;;;;;;25.25;13.13;;;;;;;4.26;62.71;100273.31;5052933;28;20052;-64
2021/10/11 05:44:10;;;;;;;29.25;14.45;;;;;;;4.32;62.52;100262.94;5069480;28;20056;-62
2021/10/11 05:46:37;;;;;;;33.17;15.20;;;;;;;4.41;62.74;100263.72;5070812;28;20521;-63
2021/10/11 05:49:04;;;;;;;34.33;13.77;;;;;;;4.48;62.09;100264.63;5070870;28;20075;-63
2021/10/11 05:51:30;;;;;;;25.88;12.52;;;;;;;4.55;61.59;100262.09;5019409;28;20119;-63
2021/10/11 05:53:56;;;;;;;29.83;12.38;;;;;;;4.60;60.95;100259.78;5052303;28;20055;-63
2021/10/11 05:56:22;;;;;;;22.60;13.38;;;;;;;4.64;61.36;100261.03;5055519;28;20135;-63
2021/10/11 05:58:47;;;;;;;36.35;12.38;;;;;;;4.73;61.23;100257.34;5056398;28;20121;-63
2021/10/11 06:01:13;;;;;;;27.50;12.88;;;;;;;4.82;60.96;100265.97;5074455;28;20139;-65
2021/10/11 06:03:39;;;;;;;30.63;13.43;;;;;;;4.88;61.67;100260.03;5074631;28;20044;-64
2021/10/11 06:06:05;;;;;;;26.33;13.40;;;;;;;4.94;62.06;100259.31;5073311;28;20044;-65
2021/10/11 06:08:30;;;;;;;26.30;12.85;;;;;;;4.98;61.97;100257.13;5074057;28;20052;-64
2021/10/11 06:10:56;;;;;;;26.58;13.02;;;;;;;5.07;62.33;100266.56;5073754;28;20141;-63
2021/10/11 06:13:22;;;;;;;27.95;13.00;;;;;;;5.09;61.88;100259.31;5072900;28;20056;-63
2021/10/11 06:15:48;;;;;;;29.70;13.63;;;;;;;5.17;61.18;100259.22;5073127;28;20048;-65
2021/10/11 06:18:14;;;;;;;27.92;14.35;;;;;;;5.29;60.13;100264.03;5072950;28;20094;-64
2021/10/11 06:20:40;;;;;;;24.48;12.75;;;;;;;5.36;59.71;100255.25;5073208;28;20040;-65
2021/10/11 06:23:06;;;;;;;30.65;13.18;;;;;;;5.44;60.09;100252.53;5072809;28;20051;-63
2021/10/11 06:25:32;;;;;;;27.05;13.77;;;;;;;5.53;60.32;100255.88;5073092;28;20127;-64
2021/10/11 06:27:57;;;;;;;32.95;14.18;;;;;;;5.58;60.12;100250.88;5072611;28;20526;-63
2021/10/11 06:30:23;;;;;;;29.23;14.57;;;;;;;5.63;59.73;100250.31;5073719;28;20250;-65
2021/10/11 06:32:49;;;;;;;26.80;13.70;;;;;;;5.72;59.36;100251.03;5072771;28;20052;-63
2021/10/11 06:35:15;;;;;;;29.15;12.73;;;;;;;5.78;58.54;100245.03;5055929;28;20040;-63
2021/10/11 06:37:40;;;;;;;27.05;13.77;;;;;;;5.87;57.82;100247.38;5072207;28;20048;-64
2021/10/11 06:40:07;;;;;;;28.17;12.57;;;;;;;5.98;57.88;100248.75;5073679;28;20036;-65
2021/10/11 06:42:33;;;;;;;32.58;14.18;;;;;;;6.03;56.69;100249.00;5072830;28;20044;-64
2021/10/11 06:44:59;;;;;;;22.05;12.60;;;;;;;6.08;56.47;100246.59;5074051;28;20109;-63
2021/10/11 06:47:24;;;;;;;25.50;12.15;;;;;;;6.14;56.79;100247.66;5072539;28;20055;-63
2021/10/11 06:49:50;;;;;;;26.52;12.23;;;;;;;6.22;55.63;100242.28;5072716;28;20068;-64
2021/10/11 06:52:16;;;;;;;21.13;12.02;;;;;;;6.28;55.47;100236.28;5073658;28;20048;-64
2021/10/11 06:54:42;;;;;;;20.42;12.18;;;;;;;6.34;55.38;100230.25;5073952;28;20064;-62
2021/10/11 06:57:08;;;;;;;21.10;11.93;;;;;;;6.40;55.06;100225.25;5073688;28;20402;-63
2021/10/11 06:59:35;;;;;;;19.13;11.63;;;;;;;6.47;54.63;100223.47;5073772;28;20055;-64
2021/10/11 07:02:01;;;;;;;21.98;11.82;;;;;;;6.51;54.58;100222.91;5073416;28;20080;-64
2021/10/11 07:04:29;;;;;;;27.88;12.60;;;;;;;6.59;54.57;100217.50;5072248;28;20052;-64
2021/10/11 07:06:54;;;;;;;22.30;11.38;;;;;;;6.67;54.03;100221.00;5054664;28;20063;-63
2021/10/11 07:09:20;;;;;;;20.48;11.27;;;;;;;6.77;54.15;100224.13;5073142;28;20506;-64
2021/10/11 07:11:50;;;;;;;21.17;12.07;;;;;;;6.85;54.10;100216.06;5073363;28;20322;-63
2021/10/11 07:14:16;;;;;;;26.08;11.60;;;;;;;6.89;53.33;100209.41;5073423;28;20040;-63
2021/10/11 07:16:45;;;;;;;15.88;10.73;;;;;;;6.98;52.59;100210.88;5072032;28;20539;-64
2021/10/11 07:19:11;;;;;;;21.10;11.10;;;;;;;7.04;53.05;100207.47;5072905;28;20541;-62
2021/10/11 07:21:37;;;;;;;18.13;10.55;;;;;;;7.11;52.58;100215.41;5038377;28;20043;-64
2021/10/11 07:24:03;;;;;;;15.65;10.30;;;;;;;7.18;51.93;100202.28;5071684;28;20453;-64
2021/10/11 07:26:29;;;;;;;20.85;11.02;;;;;;;7.23;51.89;100205.13;5055133;28;20041;-63
2021/10/11 07:28:55;;;;;;;17.80;10.77;;;;;;;7.31;51.43;100206.78;5073084;28;20051;-63
2021/10/11 07:31:21;;;;;;;18.08;10.25;;;;;;;7.38;51.33;100207.63;5072956;28;20040;-64
2021/10/11 07:33:47;;;;;;;17.52;10.90;;;;;;;7.44;51.45;100209.47;5073217;28;20444;-64
2021/10/11 07:36:12;;;;;;;20.45;10.57;;;;;;;7.50;51.09;100201.63;5073057;28;20060;-66
2021/10/11 07:38:38;;;;;;;20.70;10.55;;;;;;;7.59;50.93;100204.06;5071460;28;20044;-63
2021/10/11 07:41:04;;;;;;;23.10;10.18;;;;;;;7.64;50.85;100199.00;5071441;28;20044;-63
2021/10/11 07:43:30;;;;;;;21.70;12.60;;;;;;;7.68;50.96;100202.91;5072742;28;20055;-63
2021/10/11 07:46:02;;;;;;;21.35;10.73;;;;;;;7.69;50.91;100193.94;5054710;28;20118;-64
2021/10/11 07:48:28;;;;;;;17.45;10.30;;;;;;;7.76;50.99;100194.78;5071629;28;20048;-62
2021/10/11 07:50:55;;;;;;;18.83;10.10;;;;;;;7.83;50.63;100197.44;5071463;28;20037;-63
2021/10/11 07:53:20;;;;;;;21.25;11.70;;;;;;;7.88;50.78;100195.84;5070982;28;20437;-64
2021/10/11 07:55:46;;;;;;;17.58;10.45;;;;;;;7.94;51.31;100195.03;5071354;28;20158;-65
2021/10/11 07:58:12;;;;;;;18.55;10.15;;;;;;;7.99;50.65;100189.16;5054160;28;20048;-63
2021/10/11 08:00:38;;;;;;;17.70;10.68;;;;;;;8.07;50.75;100196.06;5054360;28;20521;-63
2021/10/11 08:03:04;;;;;;;24.00;11.38;;;;;;;8.12;50.52;100191.81;5072267;28;20052;-63
2021/10/11 08:05:30;;;;;;;21.17;10.95;;;;;;;8.21;50.39;100195.09;5072464;28;20045;-64
2021/10/11 08:07:57;;;;;;;20.08;10.20;;;;;;;8.28;50.65;100189.78;5071056;28;20041;-63
2021/10/11 08:10:22;;;;;;;20.13;10.50;;;;;;;8.32;50.17;100180.44;5054189;28;20193;-62
2021/10/11 08:12:48;;;;;;;18.88;9.75;;;;;;;8.37;49.77;100192.03;5071986;28;20044;-63
2021/10/11 08:15:14;;;;;;;17.48;9.93;;;;;;;8.46;49.30;100191.84;5070809;28;20065;-63
2021/10/11 08:17:40;;;;;;;19.83;10.20;;;;;;;8.52;48.79;100180.47;5070614;28;20046;-62
2021/10/11 08:20:06;;;;;;;20.35;9.63;;;;;;;8.60;49.52;100189.00;5070679;28;20131;-65
2021/10/11 08:22:34;;;;;;;20.70;10.55;;;;;;;8.67;49.78;100180.25;5070651;28;20099;-65
2021/10/11 08:25:00;;;;;;;16.80;10.38;;;;;;;8.70;49.27;100171.91;5071565;28;20041;-63
2021/10/11 08:27:26;;;;;;;20.40;10.63;;;;;;;8.78;49.92;100172.50;5070486;28;20540;-64
2021/10/11 08:29:52;;;;;;;22.90;10.60;;;;;;;8.84;49.49;100178.81;5070330;28;20064;-64
2021/10/11 08:32:22;;;;;;;14.75;10.27;;;;;;;8.91;49.61;100179.59;5070330;28;20048;-64
2021/10/11 08:34:50;;;;;;;22.58;11.02;;;;;;;8.95;49.07;100180.81;5070511;28;20043;-64
2021/10/11 08:37:16;;;;;;;20.98;10.70;;;;;;;9.02;49.00;100178.16;5070441;28;20498;-62
2021/10/11 08:39:42;;;;;;;15.98;10.65;;;;;;;8.87;49.18;100136.09;5053538;28;20040;-63
2021/10/11 08:42:14;;;;;;;17.50;10.52;;;;;;;9.11;48.81;100184.84;5071524;28;20106;-65
2021/10/11 08:44:40;;;;;;;20.70;11.55;;;;;;;9.16;48.34;100171.00;5071913;28;20040;-64
2021/10/11 08:47:09;;;;;;;18.33;10.18;;;;;;;9.14;49.59;100159.81;5071620;28;20045;-64
2021/10/11 08:49:35;;;;;;;18.80;10.85;;;;;;;9.26;49.19;100174.81;5070362;28;20036;-63
2021/10/11 08:52:02;;;;;;;22.48;10.27;;;;;;;9.33;49.07;100172.16;5070106;28;20070;-65
2021/10/11 08:54:28;;;;;;;15.77;10.10;;;;;;;9.39;48.58;100170.50;5071654;28;20036;-64
2021/10/11 08:56:54;;;;;;;18.90;10.02;;;;;;;9.45;48.68;100167.03;5071531;28;20407;-66
2021/10/11 08:59:29;;;;;;;15.73;9.82;;;;;;;9.48;48.99;100162.13;5071642;28;20044;-63
2021/10/11 09:02:04;;;;;;;21.77;10.23;;;;;;;9.57;47.49;100160.03;5070112;28;20051;-65
2021/10/11 09:04:30;;;;;;;18.73;9.07;;;;;;;9.59;47.50;100149.22;5069926;28;20071;-62
2021/10/11 09:07:06;;;;;;;18.52;9.77;;;;;;;9.67;47.47;100155.09;5069558;28;20043;-64
2021/10/11 09:09:33;;;;;;;20.42;9.75;;;;;;;9.75;46.98;100152.19;5071347;28;20048;-64
2021/10/11 09:11:59;;;;;;;16.33;9.65;;;;;;;9.77;47.43;100149.34;5069529;28;20421;-64
2021/10/11 09:14:25;;;;;;;15.68;9.88;;;;;;;9.82;46.93;100149.50;5069753;28;20041;-68
2021/10/11 09:17:03;;;;;;;22.27;9.82;;;;;;;9.86;47.64;100140.13;5071174;28;20487;-64
2021/10/11 09:19:33;;;;;;;29.70;10.90;;;;;;;9.90;47.70;100140.50;5071329;28;20037;-64
2021/10/11 09:21:59;;;;;;;21.08;9.32;;;;;;;9.96;47.58;100139.63;5070807;28;20051;-64
2021/10/11 09:24:25;;;;;;;16.70;9.70;;;;;;;10.00;46.95;100143.50;5069957;28;20036;-66
2021/10/11 09:26:56;;;;;;;17.65;8.95;;;;;;;10.06;46.62;100136.50;5071011;28;20036;-65
2021/10/11 09:29:36;;;;;;;15.88;8.68;;;;;;;10.10;45.73;100130.56;5070016;28;20041;-64
2021/10/11 09:32:07;;;;;;;17.17;8.68;;;;;;;10.14;45.83;100133.59;5077876;28;20485;-63
2021/10/11 09:34:35;;;;;;;19.98;9.38;;;;;;;10.18;45.01;100130.31;5078030;28;20051;-63
2021/10/11 09:37:03;;;;;;;16.98;8.93;;;;;;;10.24;44.94;100134.72;5076368;28;20064;-64
2021/10/11 09:39:32;;;;;;;16.90;8.05;;;;;;;10.26;44.97;100120.44;5077920;28;20119;-62
2021/10/11 09:41:59;;;;;;;15.63;6.85;;;;;;;10.32;44.16;100135.50;5077494;28;20084;-63
2021/10/11 09:44:25;;;;;;;10.80;6.75;;;;;;;10.33;43.82;100115.94;5077345;28;20044;-65
2021/10/11 09:47:01;;;;;;;10.68;5.97;;;;;;;10.33;43.36;100119.41;5076335;28;20049;-65
2021/10/11 09:49:27;;;;;;;10.38;5.30;;;;;;;10.37;43.16;100114.47;5076600;28;20119;-62
2021/10/11 09:51:54;;;;;;;15.60;5.60;;;;;;;10.41;42.89;100113.84;5076395;28;20570;-62
2021/10/11 09:54:21;;;;;;;8.43;5.40;;;;;;;10.43;42.16;100109.09;5076313;28;20127;-63
2021/10/11 09:56:47;;;;;;;11.00;5.10;;;;;;;10.50;42.61;100106.41;5077501;28;20044;-64
2021/10/11 09:59:16;;;;;;;8.98;5.60;;;;;;;10.57;42.89;100108.97;5077578;28;20046;-64
2021/10/11 10:01:43;;;;;;;10.20;5.00;;;;;;;10.63;42.44;100108.09;5076295;28;20048;-64
2021/10/11 10:04:30;;;;;;;6.75;4.63;;;;;;;10.64;42.24;100089.31;5077204;28;20064;-63
2021/10/11 10:07:00;;;;;;;13.00;5.32;;;;;;;10.62;42.01;100085.28;5076147;28;20406;-65
2021/10/11 10:09:28;;;;;;;8.70;5.57;;;;;;;10.68;41.85;100090.50;5059751;28;20036;-63
2021/10/11 10:11:54;;;;;;;9.32;5.43;;;;;;;10.71;41.61;100091.06;5076983;28;20048;-64
2021/10/11 10:14:25;;;;;;;12.18;5.80;;;;;;;10.71;41.99;100086.59;5075770;28;20040;-64
2021/10/11 10:16:52;;;;;;;9.98;5.85;;;;;;;10.75;41.85;100081.66;5075891;28;20469;-64
2021/10/11 10:19:21;;;;;;;12.02;5.78;;;;;;;10.77;41.47;100080.41;5059233;28;20036;-64
2021/10/11 10:21:47;;;;;;;8.90;5.35;;;;;;;10.80;41.83;100076.50;5075956;28;20425;-63
2021/10/11 10:24:27;;;;;;;10.88;6.20;;;;;;;10.81;41.79;100070.16;5059136;28;20033;-63
2021/10/11 10:27:04;;;;;;;10.95;5.15;;;;;;;10.84;41.78;100067.88;5077075;28;20041;-62
2021/10/11 10:29:49;;;;;;;8.70;5.85;;;;;;;10.89;41.41;100069.88;5077411;28;20045;-64
2021/10/11 10:32:19;;;;;;;10.57;5.40;;;;;;;10.92;41.10;100066.78;5075754;28;20054;-63
2021/10/11 10:34:46;;;;;;;9.57;5.70;;;;;;;10.95;41.15;100071.63;5075868;28;20449;-65
2021/10/11 10:37:13;;;;;;;10.30;5.35;;;;;;;10.96;40.57;100059.19;5076911;28;20052;-65
2021/10/11 10:39:45;;;;;;;8.55;5.28;;;;;;;11.00;41.05;100055.88;5059471;28;20123;-64
2021/10/11 10:42:26;;;;;;;9.30;5.88;;;;;;;10.98;40.55;100057.94;5073877;28;20045;-64
2021/10/11 10:44:54;;;;;;;10.80;5.57;;;;;;;10.99;40.38;100056.06;5073919;28;20044;-64
2021/10/11 10:47:34;;;;;;;9.32;5.32;;;;;;;10.99;40.41;100045.47;5073541;28;20067;-64
2021/10/11 10:50:00;;;;;;;10.00;5.75;;;;;;;11.01;40.37;100049.53;5072494;28;20040;-64
2021/10/11 10:52:26;;;;;;;14.50;6.15;;;;;;;11.07;40.54;100042.50;5073560;28;20395;-66
2021/10/11 10:54:58;;;;;;;12.13;6.85;;;;;;;11.10;40.22;100039.41;5055667;28;20046;-62
2021/10/11 10:57:26;;;;;;;9.55;6.22;;;;;;;11.10;40.42;100034.91;5073549;28;20052;-64
2021/10/11 10:59:54;;;;;;;12.82;6.47;;;;;;;11.14;40.53;100029.94;5073891;28;20058;-64
2021/10/11 11:02:20;;;;;;;9.65;6.35;;;;;;;11.15;40.53;100018.31;5073273;28;20091;-63
2021/10/11 11:04:55;;;;;;;12.38;6.55;;;;;;;11.16;40.81;100019.13;5071769;28;20040;-63
2021/10/11 11:07:31;;;;;;;9.88;6.75;;;;;;;11.09;41.07;100009.41;5072097;28;20048;-64
2021/10/11 11:10:00;;;;;;;10.82;7.40;;;;;;;11.13;40.86;100018.53;5073237;28;20084;-64
2021/10/11 11:12:32;;;;;;;10.45;6.35;;;;;;;11.16;40.71;100016.47;5071808;28;20053;-62
2021/10/11 11:14:59;;;;;;;12.88;6.55;;;;;;;11.13;40.59;100002.63;5073578;28;20464;-62